Time;durP1;ratioP1;P1;durP2;ratioP2;P2;SDS_P1;SDS_P2;PMS_P1;PMS_P2;Temp;Humidity;BMP_temperature;BMP_pressure;BME280_temperature;BME280_humidity;BME280_pressure;Samples;Min_cycle;Max_cycle;Signal;HPM_P1;HPM_P2
2022/01/04 00:00:46;;;;;;;1.73;1.63;;;8.10;99.90;;;;;;5112047;28;20055;-87
2022/01/04 00:03:11;;;;;;;1.85;0.90;;;8.10;99.90;;;;;;5114275;28;20642;-85
2022/01/04 00:05:37;;;;;;;2.15;2.05;;;8.10;99.90;;;;;;5114981;28;20040;-88
2022/01/04 00:08:07;;;;;;;1.27;0.95;;;8.10;99.90;;;;;;5114658;28;20093;-83
2022/01/04 00:10:33;;;;;;;1.58;1.48;;;8.20;99.90;;;;;;5114770;28;20098;-83
2022/01/04 00:15:44;;;;;;;0.63;0.63;;;8.20;99.90;;;;;;5114842;28;20086;-89
2022/01/04 00:18:10;;;;;;;0.65;0.65;;;8.20;99.90;;;;;;5122504;28;20050;-77
2022/01/04 00:20:36;;;;;;;1.30;1.20;;;8.20;99.90;;;;;;5118432;28;20043;-83
2022/01/04 00:23:02;;;;;;;6.13;1.05;;;8.20;99.90;;;;;;5114119;28;20043;-86
2022/01/04 00:25:28;;;;;;;1.55;1.55;;;8.20;99.90;;;;;;5114825;28;20100;-87
2022/01/04 00:27:54;;;;;;;0.82;0.82;;;8.20;99.90;;;;;;5104539;28;20047;-74
2022/01/04 00:30:20;;;;;;;1.13;0.93;;;8.30;99.90;;;;;;5152603;27;20056;-75
2022/01/04 00:32:45;;;;;;;5.47;1.90;;;8.30;99.90;;;;;;5129171;27;20039;-84
2022/01/04 00:35:11;;;;;;;1.33;1.10;;;8.30;99.90;;;;;;5135807;27;20054;-86
2022/01/04 00:37:37;;;;;;;0.60;0.60;;;8.40;99.90;;;;;;5117385;27;20122;-88
2022/01/04 00:40:04;;;;;;;0.50;0.50;;;8.40;99.90;;;;;;5135378;27;20126;-85
2022/01/04 00:42:29;;;;;;;3.47;2.28;;;8.40;99.90;;;;;;5116570;27;20117;-84
2022/01/04 00:44:55;;;;;;;3.72;2.90;;;8.40;99.90;;;;;;5116510;27;20051;-78
2022/01/04 00:47:27;;;;;;;1.58;1.48;;;8.40;99.90;;;;;;5116277;27;20133;-87
2022/01/04 00:49:53;;;;;;;;;;;8.40;99.90;;;;;;5116655;27;20060;-87
2022/01/04 00:52:18;;;;;;;2.08;0.63;;;8.40;99.90;;;;;;5099679;27;19919;-88
2022/01/04 00:54:45;;;;;;;0.63;0.63;;;8.40;99.90;;;;;;5116734;28;20123;-86
2022/01/04 00:57:11;;;;;;;6.22;0.88;;;8.30;99.90;;;;;;5116045;27;20488;-87
2022/01/04 00:59:37;;;;;;;2.53;1.15;;;8.50;99.90;;;;;;5125090;27;20038;-88
2022/01/04 01:02:03;;;;;;;0.32;0.32;;;8.40;99.90;;;;;;5113781;28;20044;-87
2022/01/04 01:04:29;;;;;;;3.45;0.75;;;8.40;99.90;;;;;;5114429;28;20116;-87
2022/01/04 01:06:55;;;;;;;3.58;3.40;;;8.40;99.90;;;;;;5114490;28;20114;-88
2022/01/04 01:09:23;;;;;;;1.85;1.27;;;8.40;99.90;;;;;;5114364;28;20461;-87
2022/01/04 01:11:48;;;;;;;0.68;0.68;;;8.40;99.90;;;;;;5114606;28;20077;-88
2022/01/04 01:14:14;;;;;;;1.02;1.02;;;8.40;99.90;;;;;;5114287;28;20123;-89
2022/01/04 01:16:40;;;;;;;4.00;0.93;;;8.30;99.90;;;;;;5114151;28;20495;-89
2022/01/04 01:19:05;;;;;;;5.00;1.48;;;8.30;99.90;;;;;;5095668;28;20044;-88
2022/01/04 01:25:13;;;;;;;2.70;1.38;;;8.30;99.90;;;;;;5116722;28;20145;-85
2022/01/04 01:27:40;;;;;;;1.98;0.57;;;8.30;99.90;;;;;;5117502;28;20039;-85
2022/01/04 01:30:07;;;;;;;1.65;1.20;;;8.20;99.90;;;;;;5135313;27;20470;-85
2022/01/04 01:32:33;;;;;;;0.50;0.40;;;8.10;99.90;;;;;;5138565;27;20391;-87
2022/01/04 01:34:59;;;;;;;1.55;0.32;;;8.10;99.90;;;;;;5138372;27;20043;-87
2022/01/04 01:37:25;;;;;;;5.97;1.08;;;8.00;99.90;;;;;;5137935;27;20371;-86
2022/01/04 01:39:50;;;;;;;1.38;1.27;;;8.00;99.90;;;;;;5119813;27;20183;-82
2022/01/04 01:42:16;;;;;;;0.20;0.20;;;8.00;99.90;;;;;;5137739;27;20091;-83
2022/01/04 01:44:42;;;;;;;2.22;2.13;;;8.00;99.90;;;;;;5119495;27;20139;-87
2022/01/04 01:47:08;;;;;;;0.45;0.45;;;8.00;99.90;;;;;;5138035;27;20047;-86
2022/01/04 01:49:34;;;;;;;1.27;1.20;;;8.00;99.90;;;;;;5102515;27;20097;-86
2022/01/04 01:52:00;;;;;;;6.35;1.33;;;8.00;99.90;;;;;;5137890;27;20079;-87
2022/01/04 01:54:26;;;;;;;1.70;1.60;;;7.90;99.90;;;;;;5137559;27;20399;-86
2022/01/04 01:56:52;;;;;;;0.85;0.73;;;7.90;99.90;;;;;;5119342;27;20039;-76
2022/01/04 01:59:18;;;;;;;0.30;0.30;;;7.90;99.90;;;;;;5137208;27;20532;-86
2022/01/04 02:01:44;;;;;;;7.72;2.60;;;7.90;99.90;;;;;;5119204;27;20491;-86
2022/01/04 02:04:10;;;;;;;1.23;0.85;;;7.90;99.90;;;;;;5119110;27;20053;-87
2022/01/04 02:06:36;;;;;;;1.75;1.65;;;7.90;99.90;;;;;;5119111;27;20047;-88
2022/01/04 02:09:04;;;;;;;2.67;1.58;;;7.90;99.90;;;;;;5137477;27;20031;-87
2022/01/04 02:11:30;;;;;;;0.60;0.60;;;7.90;99.90;;;;;;5147672;27;20585;-86
2022/01/04 02:13:57;;;;;;;1.38;1.38;;;7.90;99.90;;;;;;5119304;27;20432;-81
2022/01/04 02:16:25;;;;;;;1.70;1.60;;;8.00;99.90;;;;;;5137802;27;20180;-85
2022/01/04 02:18:51;;;;;;;1.27;1.17;;;8.00;99.90;;;;;;5152985;27;20072;-82
2022/01/04 02:21:17;;;;;;;1.10;1.02;;;8.00;99.90;;;;;;5139688;27;20051;-87
2022/01/04 02:23:43;;;;;;;2.35;1.33;;;8.00;99.90;;;;;;5140614;27;20453;-88
2022/01/04 02:26:09;;;;;;;0.40;0.40;;;8.10;99.90;;;;;;5137538;27;20031;-87
2022/01/04 02:28:35;;;;;;;1.35;1.35;;;8.10;99.90;;;;;;5119244;27;20074;-88
2022/01/04 02:31:00;;;;;;;2.67;1.33;;;8.20;99.90;;;;;;5098618;28;20127;-88
2022/01/04 02:33:26;;;;;;;1.77;1.67;;;8.20;99.90;;;;;;5116366;28;20142;-88
2022/01/04 02:35:52;;;;;;;2.85;0.90;;;8.20;99.90;;;;;;5116025;28;20043;-87
2022/01/04 02:38:17;;;;;;;30.83;1.55;;;8.20;99.90;;;;;;5116470;28;20035;-87
2022/01/04 02:40:43;;;;;;;0.20;0.20;;;8.30;99.90;;;;;;5116614;28;20050;-87
2022/01/04 02:43:09;;;;;;;10.07;2.17;;;8.30;99.90;;;;;;5116680;28;20047;-88
2022/01/04 02:45:35;;;;;;;2.95;0.77;;;8.30;99.90;;;;;;5098266;28;20039;-88
2022/01/04 02:48:00;;;;;;;1.50;1.40;;;8.30;99.90;;;;;;5117225;28;20047;-88
2022/01/04 02:50:26;;;;;;;1.20;1.20;;;8.30;99.90;;;;;;5116695;28;20042;-88
2022/01/04 02:52:52;;;;;;;0.25;0.25;;;8.30;99.90;;;;;;5098142;28;20115;-87
2022/01/04 02:55:18;;;;;;;1.65;1.00;;;8.30;99.90;;;;;;5116460;28;20039;-88
2022/01/04 02:57:44;;;;;;;8.70;3.00;;;8.30;99.90;;;;;;5116497;28;20134;-86
2022/01/04 03:00:13;;;;;;;1.10;0.65;;;8.30;99.90;;;;;;5128714;27;20122;-88
2022/01/04 03:02:40;;;;;;;1.38;1.35;;;8.30;99.90;;;;;;5135993;27;20059;-86
2022/01/04 03:05:07;;;;;;;1.52;1.50;;;8.30;99.90;;;;;;5136504;27;20112;-86
2022/01/04 03:07:33;;;;;;;1.20;1.20;;;8.20;99.90;;;;;;5117843;27;20047;-86
2022/01/04 03:09:58;;;;;;;1.98;1.30;;;8.20;99.90;;;;;;5118130;27;20046;-86
2022/01/04 03:12:24;;;;;;;0.55;0.55;;;8.20;99.90;;;;;;5136779;27;20047;-86
2022/01/04 03:14:50;;;;;;;0.52;0.50;;;8.10;99.90;;;;;;5152419;27;20039;-88
2022/01/04 03:17:16;;;;;;;0.85;0.85;;;8.10;99.90;;;;;;5137876;27;20402;-85
2022/01/04 03:19:41;;;;;;;0.75;0.75;;;8.10;99.90;;;;;;5118785;27;20039;-86
2022/01/04 03:22:07;;;;;;;7.45;2.53;;;8.10;99.90;;;;;;5118065;27;20039;-87
2022/01/04 03:24:33;;;;;;;3.28;1.52;;;8.10;99.90;;;;;;5117789;27;20391;-85
2022/01/04 03:27:00;;;;;;;5.50;2.33;;;8.10;99.90;;;;;;5100471;27;20043;-87
2022/01/04 03:29:26;;;;;;;4.03;1.20;;;8.10;99.90;;;;;;5114124;28;20070;-88
2022/01/04 03:31:52;;;;;;;2.50;2.03;;;8.00;99.90;;;;;;5124021;28;20043;-83
2022/01/04 03:34:18;;;;;;;1.92;0.90;;;8.00;99.90;;;;;;5115704;28;20075;-86
2022/01/04 03:36:44;;;;;;;5.63;1.95;;;8.00;99.90;;;;;;5097146;28;20083;-87
2022/01/04 03:39:10;;;;;;;2.85;2.63;;;8.00;99.90;;;;;;5114381;28;20096;-88
2022/01/04 03:41:41;;;;;;;0.40;0.40;;;8.00;99.90;;;;;;5097473;28;20047;-88
2022/01/04 03:44:10;;;;;;;5.63;1.25;;;8.00;99.90;;;;;;5097749;28;20047;-85
2022/01/04 03:46:35;;;;;;;0.20;0.20;;;7.90;99.90;;;;;;5115271;28;20062;-86
2022/01/04 03:49:02;;;;;;;1.33;1.23;;;7.90;99.90;;;;;;5096362;28;20047;-87
2022/01/04 03:51:27;;;;;;;1.48;1.33;;;7.90;99.90;;;;;;5114813;28;20476;-86
2022/01/04 03:53:53;;;;;;;0.68;0.68;;;7.90;99.90;;;;;;5080193;28;20058;-86
2022/01/04 03:56:19;;;;;;;2.63;1.20;;;7.90;99.90;;;;;;5115105;28;20042;-88
2022/01/04 03:58:44;;;;;;;4.95;1.83;;;8.00;99.90;;;;;;5098214;27;20091;-88
2022/01/04 04:01:10;;;;;;;0.43;0.43;;;7.90;99.90;;;;;;5135829;27;20049;-87
2022/01/04 04:03:36;;;;;;;3.10;1.48;;;7.90;99.90;;;;;;5116810;27;20132;-87
2022/01/04 04:06:02;;;;;;;1.67;1.30;;;7.90;99.90;;;;;;5135734;27;20039;-88
2022/01/04 04:08:28;;;;;;;1.80;1.50;;;7.90;99.90;;;;;;5117399;27;20046;-87
2022/01/04 04:10:54;;;;;;;2.40;2.28;;;7.90;99.90;;;;;;5118311;27;20074;-88
2022/01/04 04:13:20;;;;;;;1.52;1.05;;;7.90;99.90;;;;;;5137062;27;20034;-84
2022/01/04 04:15:45;;;;;;;2.25;1.02;;;7.80;99.90;;;;;;5136731;27;20047;-86
2022/01/04 04:18:13;;;;;;;2.72;1.48;;;7.80;99.90;;;;;;5143816;27;20039;-75
2022/01/04 04:20:39;;;;;;;2.13;1.98;;;7.80;99.90;;;;;;5119460;27;20040;-90
2022/01/04 04:23:06;;;;;;;5.32;1.63;;;7.80;99.90;;;;;;5135067;27;20078;-88
2022/01/04 04:25:33;;;;;;;2.08;1.05;;;7.80;99.90;;;;;;5135039;27;20429;-89
2022/01/04 04:27:58;;;;;;;5.03;4.25;;;7.80;99.90;;;;;;5135429;27;20043;-90
2022/01/04 04:30:25;;;;;;;2.92;2.80;;;7.80;99.90;;;;;;5135146;27;20035;-89
2022/01/04 04:32:51;;;;;;;3.05;2.85;;;7.80;99.90;;;;;;5116884;27;20043;-90
2022/01/04 04:35:17;;;;;;;4.05;3.80;;;7.80;99.90;;;;;;5135055;27;20058;-89
2022/01/04 04:37:43;;;;;;;20.33;2.83;;;7.80;99.90;;;;;;5100050;27;20046;-90
2022/01/04 04:40:10;;;;;;;1.88;1.77;;;7.80;99.90;;;;;;5116581;27;20130;-90
2022/01/04 04:42:36;;;;;;;1.73;1.63;;;7.80;99.90;;;;;;5134704;27;20046;-87
2022/01/04 04:45:02;;;;;;;6.68;2.42;;;7.70;99.90;;;;;;5115521;27;20039;-83
2022/01/04 04:47:29;;;;;;;2.35;2.17;;;7.80;99.90;;;;;;5115572;27;20042;-83
2022/01/04 04:49:54;;;;;;;4.05;1.50;;;7.80;99.90;;;;;;5133727;27;20503;-83
2022/01/04 04:52:21;;;;;;;10.98;1.92;;;7.70;99.90;;;;;;5115877;27;20047;-83
2022/01/04 04:54:47;;;;;;;2.63;2.42;;;7.80;99.90;;;;;;5115304;27;20035;-83
2022/01/04 04:57:14;;;;;;;2.55;2.17;;;7.70;99.90;;;;;;5134074;27;20066;-80
2022/01/04 04:59:39;;;;;;;2.45;2.13;;;7.70;99.90;;;;;;5115050;27;20047;-83
2022/01/04 05:02:07;;;;;;;2.85;2.65;;;7.70;99.90;;;;;;5115211;28;20050;-83
2022/01/04 05:04:34;;;;;;;5.97;2.75;;;7.80;99.90;;;;;;5133595;27;20047;-84
2022/01/04 05:07:00;;;;;;;1.73;1.63;;;7.70;99.90;;;;;;5133902;28;20043;-85
2022/01/04 05:09:26;;;;;;;7.72;3.20;;;7.70;99.90;;;;;;5115559;28;20077;-85
2022/01/04 05:11:51;;;;;;;3.83;2.75;;;7.70;99.90;;;;;;5134148;28;20426;-84
2022/01/04 05:14:17;;;;;;;4.22;2.03;;;7.70;99.90;;;;;;5115453;28;20502;-82
2022/01/04 05:16:43;;;;;;;3.60;1.98;;;7.80;99.90;;;;;;5133955;28;20043;-84
2022/01/04 05:19:08;;;;;;;4.00;1.95;;;7.70;99.90;;;;;;5115327;28;20036;-84
2022/01/04 05:21:34;;;;;;;4.18;3.10;;;7.80;99.90;;;;;;5115308;28;20096;-84
2022/01/04 05:24:00;;;;;;;5.95;2.20;;;7.70;99.90;;;;;;5115000;28;20039;-83
2022/01/04 05:26:25;;;;;;;2.95;2.75;;;7.80;99.90;;;;;;5115117;28;20043;-84
2022/01/04 05:28:51;;;;;;;5.28;3.65;;;7.70;99.90;;;;;;5115424;28;20035;-83
2022/01/04 05:31:17;;;;;;;1.98;1.88;;;7.70;99.90;;;;;;5098513;28;20433;-84
2022/01/04 05:33:42;;;;;;;2.92;1.73;;;7.70;99.90;;;;;;5115386;28;20468;-82
2022/01/04 05:36:08;;;;;;;4.03;3.67;;;7.70;99.90;;;;;;5115215;28;20039;-83
2022/01/04 05:38:34;;;;;;;1.75;0.80;;;7.80;99.90;;;;;;5115337;28;20466;-83
2022/01/04 05:41:00;;;;;;;1.83;1.42;;;7.80;99.90;;;;;;5115302;28;20395;-83
2022/01/04 05:43:25;;;;;;;3.80;3.50;;;7.80;99.90;;;;;;5133757;28;20043;-82
2022/01/04 05:45:51;;;;;;;5.15;2.83;;;7.80;99.90;;;;;;5133683;28;20039;-83
2022/01/04 05:48:21;;;;;;;11.93;4.45;;;7.70;99.90;;;;;;5115090;28;20074;-85
2022/01/04 05:50:47;;;;;;;4.32;2.47;;;7.70;99.90;;;;;;5133557;28;20043;-83
2022/01/04 05:53:13;;;;;;;0.75;0.75;;;7.70;99.90;;;;;;5115600;28;20043;-85
2022/01/04 05:55:39;;;;;;;1.60;1.20;;;7.70;99.90;;;;;;5133658;28;20388;-85
2022/01/04 05:58:05;;;;;;;5.07;2.20;;;7.70;99.90;;;;;;5133700;28;20067;-84
2022/01/04 06:00:30;;;;;;;2.20;1.00;;;7.70;99.90;;;;;;5133583;28;20113;-85
2022/01/04 06:03:00;;;;;;;3.47;0.95;;;7.70;99.90;;;;;;5133412;28;20115;-84
2022/01/04 06:05:26;;;;;;;12.45;3.63;;;7.70;99.90;;;;;;5098980;28;20112;-85
2022/01/04 06:07:51;;;;;;;3.10;2.80;;;7.70;99.90;;;;;;5115321;28;20130;-87
2022/01/04 06:10:17;;;;;;;1.25;1.17;;;7.70;99.90;;;;;;5115280;28;20074;-80
2022/01/04 06:15:11;;;;;;;3.17;2.97;;;7.70;99.90;;;;;;5137355;27;20043;-85
2022/01/04 06:17:41;;;;;;;3.20;2.38;;;7.70;99.90;;;;;;5137234;27;20067;-85
2022/01/04 06:20:09;;;;;;;5.57;2.15;;;7.70;99.90;;;;;;5137177;27;20088;-83
2022/01/04 06:22:37;;;;;;;3.78;0.98;;;7.70;99.90;;;;;;5118482;27;20089;-83
2022/01/04 06:25:04;;;;;;;31.55;2.60;;;7.70;99.90;;;;;;5136813;27;20039;-85
2022/01/04 06:27:30;;;;;;;1.55;1.55;;;7.70;99.90;;;;;;5136775;27;20059;-85
2022/01/04 06:29:57;;;;;;;1.65;1.55;;;7.60;99.90;;;;;;5118576;27;20039;-85
2022/01/04 06:32:23;;;;;;;17.20;1.75;;;7.60;99.90;;;;;;5136407;27;20050;-84
2022/01/04 06:34:49;;;;;;;13.43;1.50;;;7.60;99.90;;;;;;5118735;27;20108;-86
2022/01/04 06:37:15;;;;;;;1.10;1.10;;;7.60;99.90;;;;;;5118055;27;20047;-86
2022/01/04 06:39:42;;;;;;;2.03;1.45;;;7.60;99.90;;;;;;5118338;27;20396;-87
2022/01/04 06:42:09;;;;;;;5.50;2.50;;;7.60;99.90;;;;;;5118286;27;20039;-85
2022/01/04 06:44:36;;;;;;;2.72;1.65;;;7.60;99.90;;;;;;5136185;27;20514;-86
2022/01/04 06:47:01;;;;;;;3.97;2.15;;;7.60;99.90;;;;;;5136552;27;20043;-80
2022/01/04 06:49:27;;;;;;;0.57;0.52;;;7.60;99.90;;;;;;5136712;27;20065;-85
2022/01/04 06:51:53;;;;;;;1.33;0.68;;;7.60;99.90;;;;;;5118200;27;20058;-82
2022/01/04 06:54:20;;;;;;;4.70;1.55;;;7.60;99.90;;;;;;5136575;27;20035;-85
2022/01/04 06:56:48;;;;;;;1.38;1.27;;;7.60;99.90;;;;;;5136525;27;20039;-85
2022/01/04 06:59:14;;;;;;;0.70;0.70;;;7.60;99.90;;;;;;5118197;27;20184;-86
2022/01/04 07:01:41;;;;;;;3.83;0.77;;;7.60;99.90;;;;;;5118243;27;20058;-85
2022/01/04 07:04:07;;;;;;;4.57;1.48;;;7.60;99.90;;;;;;5117907;27;20055;-84
2022/01/04 07:06:33;;;;;;;5.43;1.48;;;7.60;99.90;;;;;;5117892;27;20047;-86
2022/01/04 07:08:59;;;;;;;5.18;2.60;;;7.60;99.90;;;;;;5117903;27;20043;-85
2022/01/04 07:11:25;;;;;;;0.88;0.82;;;7.60;99.90;;;;;;5117891;27;20502;-85
2022/01/04 07:13:51;;;;;;;2.40;2.10;;;7.60;99.90;;;;;;5136317;27;20482;-85
2022/01/04 07:16:16;;;;;;;1.75;0.95;;;7.60;99.90;;;;;;5117332;27;20134;-86
2022/01/04 07:18:48;;;;;;;2.50;2.28;;;7.60;99.90;;;;;;5117548;27;20500;-86
2022/01/04 07:21:17;;;;;;;5.25;3.15;;;7.60;99.90;;;;;;5135887;27;20039;-86
2022/01/04 07:23:43;;;;;;;2.13;1.13;;;7.60;99.90;;;;;;5117139;27;20054;-85
2022/01/04 07:26:14;;;;;;;6.00;2.33;;;7.60;99.90;;;;;;5117427;27;20065;-84
2022/01/04 07:28:45;;;;;;;0.90;0.85;;;7.50;99.90;;;;;;5135862;27;20047;-86
2022/01/04 07:31:12;;;;;;;13.55;7.18;;;7.50;99.90;;;;;;5117431;27;20111;-86
2022/01/04 07:33:38;;;;;;;2.10;2.00;;;7.50;99.90;;;;;;5099875;27;20078;-86
2022/01/04 07:36:06;;;;;;;4.22;2.75;;;7.50;99.90;;;;;;5135500;27;20066;-86
2022/01/04 07:38:33;;;;;;;2.70;2.40;;;7.40;99.90;;;;;;5135621;27;20035;-86
2022/01/04 07:40:59;;;;;;;3.88;2.92;;;7.50;99.90;;;;;;5117021;27;20491;-84
2022/01/04 07:43:24;;;;;;;7.75;3.08;;;7.50;99.90;;;;;;5117011;27;20157;-85
2022/01/04 07:45:50;;;;;;;2.78;2.63;;;7.50;99.90;;;;;;5116950;27;20541;-85
2022/01/04 07:48:16;;;;;;;2.55;1.50;;;7.50;99.90;;;;;;5116865;27;20471;-86
2022/01/04 07:50:41;;;;;;;1.50;1.33;;;7.50;99.90;;;;;;5117189;27;20043;-87
2022/01/04 07:53:08;;;;;;;2.95;2.35;;;7.50;99.90;;;;;;5135760;27;20492;-87
2022/01/04 07:55:34;;;;;;;2.92;1.63;;;7.60;99.90;;;;;;5135796;27;20475;-85
2022/01/04 07:58:00;;;;;;;2.15;1.95;;;7.60;99.90;;;;;;5136209;27;20046;-86
2022/01/04 08:00:26;;;;;;;4.18;3.15;;;7.60;99.90;;;;;;5135366;27;20043;-85
2022/01/04 08:02:53;;;;;;;4.45;3.33;;;7.60;99.90;;;;;;5099664;27;20112;-85
2022/01/04 08:05:20;;;;;;;1.25;1.25;;;7.60;99.90;;;;;;5135718;27;20117;-85
2022/01/04 08:07:46;;;;;;;2.88;1.55;;;7.60;99.90;;;;;;5135001;27;20130;-84
2022/01/04 08:10:12;;;;;;;1.58;1.48;;;7.60;99.90;;;;;;5134808;27;20082;-85
2022/01/04 08:12:38;;;;;;;6.53;2.95;;;7.60;99.90;;;;;;5134954;27;20134;-85
2022/01/04 08:15:05;;;;;;;1.25;1.15;;;7.60;99.90;;;;;;5116109;27;20031;-85
2022/01/04 08:17:31;;;;;;;1.55;1.55;;;7.60;99.90;;;;;;5134710;27;20058;-85
2022/01/04 08:19:59;;;;;;;3.30;1.75;;;7.60;99.90;;;;;;5134464;27;20035;-85
2022/01/04 08:22:24;;;;;;;1.67;1.27;;;7.60;99.90;;;;;;5134665;27;20035;-84
2022/01/04 08:24:50;;;;;;;3.70;2.97;;;7.60;99.90;;;;;;5134807;27;20046;-84
2022/01/04 08:27:16;;;;;;;4.50;2.53;;;7.60;99.90;;;;;;5134585;27;20043;-85
2022/01/04 08:29:42;;;;;;;5.22;3.63;;;7.60;99.90;;;;;;5134666;27;20118;-85
2022/01/04 08:32:08;;;;;;;12.07;4.30;;;7.60;99.90;;;;;;5134506;27;20123;-84
2022/01/04 08:34:34;;;;;;;4.05;2.58;;;7.60;99.90;;;;;;5133992;27;20043;-86
2022/01/04 08:36:59;;;;;;;2.92;1.23;;;7.60;99.90;;;;;;5134461;27;20039;-86
2022/01/04 08:39:28;;;;;;;5.05;2.45;;;7.60;99.90;;;;;;5134005;27;20046;-84
2022/01/04 08:41:55;;;;;;;1.95;1.40;;;7.60;99.90;;;;;;5115639;27;20043;-85
2022/01/04 08:44:22;;;;;;;6.07;3.83;;;7.60;99.90;;;;;;5115842;27;20078;-85
2022/01/04 08:46:48;;;;;;;4.15;2.60;;;7.60;99.90;;;;;;5134075;27;20536;-85
2022/01/04 08:49:14;;;;;;;7.10;1.95;;;7.60;99.90;;;;;;5116102;27;20047;-85
2022/01/04 08:51:40;;;;;;;2.55;2.28;;;7.60;99.90;;;;;;5133931;27;20092;-86
2022/01/04 08:54:06;;;;;;;3.58;3.13;;;7.60;99.90;;;;;;5134223;27;20391;-85
2022/01/04 08:56:32;;;;;;;5.75;2.67;;;7.60;99.90;;;;;;5115758;28;20053;-86
2022/01/04 08:58:58;;;;;;;9.38;2.50;;;7.60;99.90;;;;;;5115710;27;20047;-86
2022/01/04 09:01:25;;;;;;;2.53;1.60;;;7.60;99.90;;;;;;5115507;27;20039;-79
2022/01/04 09:03:50;;;;;;;3.47;2.67;;;7.60;99.90;;;;;;5133895;27;20142;-85
2022/01/04 09:06:17;;;;;;;2.97;1.27;;;7.60;99.90;;;;;;5134199;28;20080;-85
2022/01/04 09:08:43;;;;;;;4.82;4.40;;;7.60;99.90;;;;;;5133839;28;20054;-85
2022/01/04 09:11:10;;;;;;;2.15;1.20;;;7.60;99.90;;;;;;5133891;28;20081;-84
2022/01/04 09:13:42;;;;;;;2.90;2.70;;;7.60;99.90;;;;;;5115261;28;20047;-83
2022/01/04 09:18:43;;;;;;;1.45;1.38;;;7.60;99.90;;;;;;5134163;28;20135;-85
2022/01/04 09:21:14;;;;;;;3.38;1.83;;;7.50;99.90;;;;;;5133890;28;20039;-84
2022/01/04 09:23:40;;;;;;;0.70;0.70;;;7.50;99.90;;;;;;5134139;28;20392;-87
2022/01/04 09:26:12;;;;;;;4.97;0.82;;;7.40;99.90;;;;;;5134393;28;20047;-85
2022/01/04 09:28:42;;;;;;;0.52;0.52;;;7.30;99.90;;;;;;5099004;28;20047;-82
2022/01/04 09:31:08;;;;;;;0.40;0.40;;;7.20;99.90;;;;;;5133921;28;20061;-84
2022/01/04 09:33:35;;;;;;;2.10;0.75;;;7.10;99.90;;;;;;5133437;28;20035;-85
2022/01/04 09:36:02;;;;;;;0.20;0.20;;;7.00;99.90;;;;;;5133894;28;20035;-85
2022/01/04 09:38:28;;;;;;;0.20;0.20;;;6.90;99.90;;;;;;5133900;28;20039;-87
2022/01/04 09:40:55;;;;;;;0.75;0.75;;;6.90;99.90;;;;;;5134360;28;20043;-85
2022/01/04 09:43:21;;;;;;;0.68;0.68;;;6.90;99.90;;;;;;5136306;28;20046;-88
2022/01/04 09:45:48;;;;;;;3.20;1.45;;;6.80;99.90;;;;;;5137011;27;20050;-86
2022/01/04 09:48:14;;;;;;;0.52;0.52;;;6.80;99.90;;;;;;5139694;27;20130;-87
2022/01/04 09:50:42;;;;;;;0.30;0.30;;;6.80;99.90;;;;;;5119780;27;20043;-87
2022/01/04 09:53:12;;;;;;;0.30;0.30;;;6.80;99.90;;;;;;5102538;27;20479;-86
2022/01/04 09:55:39;;;;;;;1.17;0.93;;;6.80;99.90;;;;;;5137584;27;20053;-87
2022/01/04 09:58:05;;;;;;;1.63;0.52;;;6.80;99.90;;;;;;5137392;27;20438;-87
2022/01/04 10:00:31;;;;;;;0.30;0.30;;;6.80;99.90;;;;;;5119405;27;20043;-87
2022/01/04 10:03:30;;;;;;;0.93;0.93;;;6.90;99.90;;;;;;5137095;27;20051;-87
2022/01/04 10:06:26;;;;;;;0.20;0.20;;;6.90;99.90;;;;;;5053819;28;20135;-87
2022/01/04 10:09:00;;;;;;;0.30;0.30;;;6.90;99.90;;;;;;4997993;28;20058;-87
2022/01/04 10:11:44;;;;;;;0.40;0.40;;;6.90;99.90;;;;;;5014272;28;20046;-86
2022/01/04 10:14:31;;;;;;;0.20;0.20;;;6.90;99.90;;;;;;5015397;28;20057;-87
2022/01/04 10:17:00;;;;;;;0.82;0.82;;;6.90;99.90;;;;;;4981556;28;20511;-87
2022/01/04 10:19:30;;;;;;;0.77;0.77;;;6.90;99.90;;;;;;4997979;28;20585;-87
2022/01/04 10:22:23;;;;;;;0.10;0.10;;;7.00;99.90;;;;;;4997730;28;20085;-87
2022/01/04 10:25:07;;;;;;;0.10;0.10;;;6.90;99.90;;;;;;4998356;28;20161;-86
2022/01/04 10:27:44;;;;;;;5.47;0.82;;;7.00;99.90;;;;;;4981211;28;20052;-87
2022/01/04 10:30:12;;;;;;;6.80;0.95;;;7.00;99.90;;;;;;4997692;28;20081;-87
2022/01/04 10:33:05;;;;;;;0.10;0.10;;;7.00;99.90;;;;;;4981249;28;20046;-87
2022/01/04 10:35:40;;;;;;;0.10;0.10;;;6.90;99.90;;;;;;4999272;28;20069;-87
2022/01/04 10:38:16;;;;;;;0.43;0.43;;;6.90;99.90;;;;;;5017670;28;20053;-87
2022/01/04 10:40:50;;;;;;;0.20;0.20;;;6.90;99.90;;;;;;5006276;28;20052;-87
2022/01/04 10:43:21;;;;;;;0.10;0.10;;;7.00;99.90;;;;;;5073719;28;20496;-87
2022/01/04 10:45:48;;;;;;;0.20;0.20;;;6.90;99.90;;;;;;5119263;27;20049;-86
2022/01/04 10:48:24;;;;;;;0.30;0.30;;;6.80;99.90;;;;;;5118574;27;20042;-87
2022/01/04 10:50:52;;;;;;;0.30;0.30;;;6.80;99.90;;;;;;5118147;27;20092;-87
2022/01/04 10:53:28;;;;;;;0.25;0.25;;;6.80;99.90;;;;;;5137190;27;20424;-86
2022/01/04 10:55:57;;;;;;;0.20;0.20;;;6.80;99.90;;;;;;5136848;27;20125;-87
2022/01/04 10:58:28;;;;;;;0.20;0.20;;;6.70;99.90;;;;;;5135577;27;20502;-84
2022/01/04 11:01:01;;;;;;;0.57;0.57;;;6.80;99.90;;;;;;5118224;27;20124;-86
2022/01/04 11:03:32;;;;;;;0.20;0.20;;;6.80;99.90;;;;;;5117936;27;20059;-86
2022/01/04 11:06:03;;;;;;;0.10;0.10;;;6.70;99.90;;;;;;5136623;27;20410;-86
2022/01/04 11:08:29;;;;;;;0.17;0.17;;;6.70;99.90;;;;;;5117802;27;20058;-86
2022/01/04 11:10:55;;;;;;;0.10;0.10;;;6.60;99.90;;;;;;5135891;27;20047;-86
2022/01/04 11:13:22;;;;;;;0.10;0.10;;;6.50;99.90;;;;;;5118453;27;20387;-87
2022/01/04 11:15:48;;;;;;;0.10;0.10;;;6.40;99.90;;;;;;5118482;27;20047;-89
2022/01/04 11:18:14;;;;;;;0.20;0.20;;;6.30;99.90;;;;;;5117979;27;20578;-88
2022/01/04 11:20:41;;;;;;;0.10;0.10;;;6.30;99.90;;;;;;5118554;27;20067;-87
2022/01/04 11:23:08;;;;;;;0.10;0.10;;;6.20;99.90;;;;;;5136692;27;20123;-88
2022/01/04 11:25:35;;;;;;;0.20;0.20;;;6.20;99.90;;;;;;5137341;27;20043;-86
2022/01/04 11:28:01;;;;;;;0.45;0.45;;;6.20;99.90;;;;;;5145061;27;20039;-90
2022/01/04 11:30:35;;;;;;;0.10;0.10;;;6.10;99.90;;;;;;5141827;27;20115;-89
2022/01/04 11:33:11;;;;;;;1.13;1.02;;;6.10;99.90;;;;;;5136953;27;20487;-90
2022/01/04 11:35:37;;;;;;;0.20;0.20;;;6.00;99.90;;;;;;5136088;27;20466;-89
2022/01/04 11:38:03;;;;;;;0.28;0.28;;;5.90;99.90;;;;;;5117727;27;20101;-86
2022/01/04 11:40:40;;;;;;;0.73;0.73;;;5.90;99.90;;;;;;5117983;27;20043;-89
2022/01/04 11:43:38;;;;;;;0.10;0.10;;;5.80;99.90;;;;;;5117547;27;20059;-87
2022/01/04 11:46:05;;;;;;;0.10;0.10;;;5.70;99.90;;;;;;5136261;27;20518;-88
2022/01/04 11:48:32;;;;;;;0.20;0.20;;;5.80;99.90;;;;;;5136542;27;20045;-86
2022/01/04 11:51:01;;;;;;;1.27;0.98;;;5.80;99.90;;;;;;5136309;27;20047;-84
2022/01/04 11:53:28;;;;;;;0.57;0.57;;;5.80;99.90;;;;;;5135931;27;20043;-85
2022/01/04 11:55:57;;;;;;;0.10;0.10;;;5.80;99.90;;;;;;5118097;27;20075;-84
2022/01/04 11:58:41;;;;;;;0.10;0.10;;;5.90;99.90;;;;;;5136097;27;20050;-83
2022/01/04 12:01:07;;;;;;;0.10;0.10;;;5.80;99.90;;;;;;5136671;27;20039;-86
2022/01/04 12:03:45;;;;;;;0.20;0.20;;;5.80;99.90;;;;;;5135532;27;20148;-88
2022/01/04 12:06:13;;;;;;;0.15;0.15;;;5.80;99.90;;;;;;5135723;27;20510;-90
2022/01/04 12:08:45;;;;;;;0.10;0.10;;;5.90;99.90;;;;;;5116952;27;20070;-90
2022/01/04 12:11:21;;;;;;;0.20;0.20;;;5.90;99.90;;;;;;5135761;27;20047;-87
2022/01/04 12:13:56;;;;;;;1.73;1.70;;;5.90;99.90;;;;;;5135593;27;20461;-87
2022/01/04 12:16:32;;;;;;;0.40;0.20;;;5.90;99.90;;;;;;5135901;27;20043;-84
2022/01/04 12:18:58;;;;;;;0.10;0.10;;;5.80;99.90;;;;;;5135724;27;20044;-88
2022/01/04 12:21:27;;;;;;;0.35;0.35;;;5.80;99.90;;;;;;5135291;27;20121;-80
2022/01/04 12:23:54;;;;;;;0.10;0.10;;;5.70;99.90;;;;;;5135228;27;20043;-84
2022/01/04 12:26:26;;;;;;;0.20;0.20;;;5.50;99.90;;;;;;5117282;27;20069;-87
2022/01/04 12:28:55;;;;;;;0.10;0.10;;;5.40;99.90;;;;;;5100093;27;20075;-89
2022/01/04 12:31:23;;;;;;;0.10;0.10;;;5.20;99.90;;;;;;5100467;27;20047;-81
2022/01/04 12:33:49;;;;;;;0.10;0.10;;;5.10;99.90;;;;;;5116993;27;20130;-90
2022/01/04 12:36:38;;;;;;;0.17;0.17;;;5.00;99.90;;;;;;5116906;27;20138;-86
2022/01/04 12:39:19;;;;;;;0.10;0.10;;;5.00;99.90;;;;;;5135149;27;20035;-88
2022/01/04 12:41:48;;;;;;;0.20;0.20;;;5.00;99.90;;;;;;5135305;27;20043;-88
2022/01/04 12:44:22;;;;;;;0.10;0.10;;;5.00;99.90;;;;;;5116795;27;20051;-87
2022/01/04 12:46:49;;;;;;;0.10;0.10;;;5.10;99.90;;;;;;5116658;27;20435;-88
2022/01/04 12:49:20;;;;;;;0.10;0.10;;;5.20;99.90;;;;;;5134943;27;20085;-88
2022/01/04 12:51:52;;;;;;;0.10;0.10;;;5.20;99.90;;;;;;5134460;27;20039;-88
2022/01/04 12:54:18;;;;;;;;;;;5.40;99.90;;;;;;5135201;27;20035;-86
2022/01/04 12:56:56;;;;;;;0.10;0.10;;;5.40;99.90;;;;;;5134586;27;20383;-91
2022/01/04 12:59:35;;;;;;;0.10;0.10;;;5.60;99.90;;;;;;5117035;27;20126;-89
2022/01/04 13:02:11;;;;;;;0.10;0.10;;;5.70;99.90;;;;;;5116716;27;20043;-90
2022/01/04 13:04:38;;;;;;;0.63;0.63;;;5.90;99.90;;;;;;5130386;27;20062;-90
2022/01/04 13:07:14;;;;;;;0.10;0.10;;;6.10;99.90;;;;;;5116794;28;20043;-91
2022/01/04 13:09:40;;;;;;;0.10;0.10;;;6.20;99.90;;;;;;5116529;28;20432;-91
2022/01/04 13:12:06;;;;;;;0.32;0.32;;;6.30;99.90;;;;;;5117994;28;20085;-91